createdAt,value
2018-09-15T00:01:24.654Z,73.43
2018-09-15T00:03:54.679Z,72.87
2018-09-15T00:06:24.704Z,73.79
2018-09-15T00:08:54.730Z,74.71
2018-09-15T00:11:24.784Z,75.03
2018-09-15T00:13:54.777Z,76.33
2018-09-15T00:16:24.590Z,75.71
2018-09-15T00:18:54.396Z,74.22
2018-09-15T00:21:24.249Z,74.69
2018-09-15T00:23:54.288Z,74.63
2018-09-15T00:26:24.241Z,73.50
2018-09-15T00:28:54.207Z,72.80
2018-09-15T00:31:24.234Z,72.79
2018-09-15T00:33:54.128Z,74.40
2018-09-15T00:36:24.231Z,73.70
2018-09-15T00:38:54.121Z,73.51
2018-09-15T00:41:23.979Z,74.50
2018-09-15T00:43:53.902Z,76.26
2018-09-15T00:46:23.999Z,77.03
2018-09-15T00:48:53.854Z,75.65
2018-09-15T00:51:23.740Z,76.19
2018-09-15T00:53:53.731Z,75.72
2018-09-15T00:56:23.620Z,75.61
2018-09-15T00:58:53.716Z,76.07
2018-09-15T01:01:23.756Z,74.88
2018-09-15T01:03:53.719Z,73.96
2018-09-15T01:06:23.814Z,73.26
2018-09-15T01:08:53.795Z,74.56
2018-09-15T01:11:24.709Z,74.91
2018-09-15T01:13:55.282Z,75.07
2018-09-15T01:16:25.051Z,75.05
2018-09-15T01:18:54.830Z,73.58
2018-09-15T01:21:24.855Z,73.21
2018-09-15T01:23:55.047Z,72.57
2018-09-15T01:26:25.052Z,75.78
2018-09-15T01:28:55.270Z,76.22
2018-09-15T01:31:25.283Z,77.91
2018-09-15T01:33:55.302Z,78.68
2018-09-15T01:36:25.299Z,77.82
2018-09-15T01:38:55.507Z,77.37
2018-09-15T01:41:25.429Z,77.36
2018-09-15T01:43:55.221Z,77.05
2018-09-15T01:46:25.240Z,77.84
2018-09-15T01:48:55.104Z,76.50
2018-09-15T01:51:25.159Z,74.56
2018-09-15T01:53:55.180Z,73.23
2018-09-15T01:56:25.330Z,73.13
2018-09-15T01:58:55.207Z,74.30
2018-09-15T02:01:25.207Z,75.61
2018-09-15T02:03:55.012Z,76.68
2018-09-15T02:06:24.831Z,76.30
2018-09-15T02:08:54.883Z,74.72
2018-09-15T02:11:24.949Z,74.89
2018-09-15T02:13:54.903Z,75.26
2018-09-15T02:16:24.923Z,75.84
2018-09-15T02:18:54.912Z,76.98
2018-09-15T02:21:24.926Z,77.60
2018-09-15T02:23:54.833Z,76.43
2018-09-15T02:26:24.718Z,76.54
2018-09-15T02:28:54.938Z,77.46
2018-09-15T02:31:24.899Z,77.13
2018-09-15T02:33:54.939Z,76.97
2018-09-15T02:36:24.899Z,77.52
2018-09-15T02:38:54.868Z,78.01
2018-09-15T02:41:24.863Z,77.84
2018-09-15T02:43:54.727Z,77.76
2018-09-15T02:46:24.750Z,77.23
2018-09-15T02:48:54.591Z,76.34
2018-09-15T02:51:24.508Z,77.90
2018-09-15T02:53:54.268Z,79.79
2018-09-15T02:56:24.088Z,79.08
2018-09-15T02:58:54.092Z,78.62
2018-09-15T03:01:24.077Z,77.40
2018-09-15T03:03:53.882Z,75.66
2018-09-15T03:06:23.911Z,75.81
2018-09-15T03:08:53.828Z,75.41
2018-09-15T03:11:23.847Z,77.58
2018-09-15T03:13:53.730Z,76.27
2018-09-15T03:16:23.734Z,76.92
2018-09-15T03:18:53.747Z,76.86
2018-09-15T03:21:23.806Z,76.00
2018-09-15T03:23:53.614Z,76.90
2018-09-15T03:26:23.661Z,79.04
2018-09-15T03:28:53.683Z,78.40
2018-09-15T03:31:23.551Z,78.93
2018-09-15T03:33:53.553Z,77.42
2018-09-15T03:36:23.603Z,77.00
2018-09-15T03:38:53.630Z,76.82
2018-09-15T03:41:23.656Z,76.20
2018-09-15T03:43:53.791Z,76.76
2018-09-15T03:46:23.709Z,75.77
2018-09-15T03:48:53.472Z,74.99
2018-09-15T03:51:23.468Z,76.14
2018-09-15T03:53:53.344Z,76.19
2018-09-15T03:56:23.329Z,75.72
2018-09-15T03:58:53.365Z,74.44
2018-09-15T04:01:23.336Z,76.28
2018-09-15T04:03:53.353Z,75.37
2018-09-15T04:06:23.498Z,74.41
2018-09-15T04:08:53.552Z,74.70
2018-09-15T04:11:23.641Z,74.75
2018-09-15T04:13:53.392Z,74.59
2018-09-15T04:16:23.470Z,76.90
2018-09-15T04:18:53.536Z,77.73
2018-09-15T04:21:23.617Z,80.23
2018-09-15T04:23:53.734Z,77.89
2018-09-15T04:26:23.809Z,75.98
2018-09-15T04:28:53.835Z,76.05
2018-09-15T04:31:23.917Z,76.54
2018-09-15T04:33:53.909Z,76.33
2018-09-15T04:36:23.926Z,76.67
2018-09-15T04:38:54.208Z,77.17
2018-09-15T04:41:24.250Z,80.36
2018-09-15T04:43:54.370Z,80.43
2018-09-15T04:46:24.453Z,79.36
2018-09-15T04:48:56.577Z,78.95
2018-09-15T04:51:26.440Z,77.81
2018-09-15T04:53:56.564Z,76.45
2018-09-15T04:56:26.351Z,77.88
2018-09-15T04:58:56.455Z,77.10
2018-09-15T05:01:26.344Z,77.26
2018-09-15T05:03:56.161Z,76.11
2018-09-15T05:06:26.287Z,76.07
2018-09-15T05:08:56.686Z,76.31
2018-09-15T05:11:26.706Z,77.85
2018-09-15T05:13:56.767Z,76.68
2018-09-15T05:16:26.653Z,77.10
2018-09-15T05:18:57.040Z,76.93
2018-09-15T05:21:26.980Z,76.53
2018-09-15T05:23:56.903Z,76.93
2018-09-15T05:26:27.110Z,76.46
2018-09-15T05:28:57.036Z,77.57
2018-09-15T05:31:27.162Z,77.68
2018-09-15T05:33:56.930Z,76.41
2018-09-15T05:36:26.764Z,76.43
2018-09-15T05:38:56.456Z,77.35
2018-09-15T05:41:26.878Z,76.79
2018-09-15T05:43:56.775Z,76.43
2018-09-15T05:46:26.639Z,78.58
2018-09-15T05:48:56.740Z,77.20
2018-09-15T05:51:26.502Z,78.29
2018-09-15T05:53:56.608Z,78.35
2018-09-15T05:56:26.315Z,77.45
2018-09-15T05:58:56.643Z,78.93
2018-09-15T06:01:26.595Z,77.77
2018-09-15T06:03:56.340Z,77.88
2018-09-15T06:06:26.438Z,78.92
2018-09-15T06:08:56.395Z,78.79
2018-09-15T06:11:26.418Z,78.23
2018-09-15T06:13:56.624Z,77.77
2018-09-15T06:16:26.658Z,78.84
2018-09-15T06:18:57.712Z,78.10
2018-09-15T06:21:27.682Z,79.49
2018-09-15T06:23:57.673Z,79.96
2018-09-15T06:26:27.523Z,79.08
2018-09-15T06:28:57.397Z,77.77
2018-09-15T06:31:27.508Z,79.16
2018-09-15T06:33:57.434Z,79.75
2018-09-15T06:36:27.343Z,78.15
2018-09-15T06:38:57.659Z,78.82
2018-09-15T06:41:27.491Z,78.86
2018-09-15T06:43:57.301Z,78.85
2018-09-15T06:46:27.444Z,80.41
2018-09-15T06:48:57.394Z,78.62
2018-09-15T06:51:27.357Z,77.12
2018-09-15T06:53:58.122Z,78.76
2018-09-15T06:56:28.163Z,80.42
2018-09-15T06:58:57.997Z,78.47
2018-09-15T07:01:27.878Z,79.38
2018-09-15T07:03:57.758Z,79.66
2018-09-15T07:06:27.683Z,78.89
2018-09-15T07:08:57.492Z,79.32
2018-09-15T07:11:27.774Z,78.78
2018-09-15T07:13:57.996Z,79.77
2018-09-15T07:16:28.227Z,79.12
2018-09-15T07:18:58.151Z,78.28
2018-09-15T07:21:28.079Z,78.12
2018-09-15T07:23:57.857Z,77.23
2018-09-15T07:26:27.846Z,77.01
2018-09-15T07:28:57.785Z,79.12
2018-09-15T07:31:27.830Z,77.49
2018-09-15T07:33:57.829Z,78.11
2018-09-15T07:36:27.613Z,79.05
2018-09-15T07:38:57.714Z,77.96
2018-09-15T07:41:27.600Z,78.32
2018-09-15T07:43:57.422Z,79.62
2018-09-15T07:46:27.474Z,78.79
2018-09-15T07:48:57.271Z,77.66
2018-09-15T07:51:27.101Z,78.05
2018-09-15T07:53:57.106Z,77.58
2018-09-15T07:56:27.115Z,78.28
2018-09-15T07:58:56.996Z,78.02
2018-09-15T08:01:26.993Z,77.86
2018-09-15T08:03:56.866Z,77.64
2018-09-15T08:06:26.887Z,76.58
2018-09-15T08:08:56.797Z,76.85
2018-09-15T08:11:26.755Z,76.59
2018-09-15T08:13:56.779Z,75.80
2018-09-15T08:16:26.596Z,76.44
2018-09-15T08:18:56.777Z,75.83
2018-09-15T08:21:26.912Z,75.76
2018-09-15T08:23:56.826Z,76.13
2018-09-15T08:26:26.681Z,75.69
2018-09-15T08:28:56.753Z,76.15
2018-09-15T08:31:26.667Z,74.75
2018-09-15T08:33:56.622Z,75.73
2018-09-15T08:36:26.679Z,75.79
2018-09-15T08:38:58.506Z,74.53
2018-09-15T08:41:28.328Z,74.13
2018-09-15T08:43:58.128Z,74.40
2018-09-15T08:46:28.045Z,74.50
2018-09-15T08:48:58.012Z,73.98
2018-09-15T08:51:27.975Z,73.49
2018-09-15T08:53:57.937Z,72.99
2018-09-15T08:56:27.947Z,73.56
2018-09-15T08:58:58.013Z,73.37
2018-09-15T09:01:27.994Z,73.26
2018-09-15T09:03:58.023Z,73.79
2018-09-15T09:06:27.955Z,73.87
2018-09-15T09:08:57.969Z,74.63
2018-09-15T09:11:27.863Z,74.76
2018-09-15T09:13:57.601Z,74.49
2018-09-15T09:16:27.315Z,74.01
2018-09-15T09:18:57.384Z,74.16
2018-09-15T09:21:27.407Z,74.10
2018-09-15T09:23:57.186Z,73.10
2018-09-15T09:26:27.221Z,75.21
2018-09-15T09:28:57.013Z,74.90
2018-09-15T09:31:27.104Z,75.87
2018-09-15T09:33:56.984Z,74.38
2018-09-15T09:36:26.820Z,73.83
2018-09-15T09:38:56.988Z,74.07
2018-09-15T09:41:27.019Z,74.31
2018-09-15T09:43:57.173Z,74.13
2018-09-15T09:46:27.178Z,72.16
2018-09-15T09:48:57.164Z,72.78
2018-09-15T09:51:27.175Z,72.40
2018-09-15T09:53:57.136Z,72.56
2018-09-15T09:56:27.282Z,72.80
2018-09-15T09:58:57.323Z,73.11
2018-09-15T10:01:29.232Z,72.18
2018-09-15T10:04:00.399Z,73.29
2018-09-15T10:06:30.244Z,73.91
2018-09-15T10:09:01.112Z,73.65
2018-09-15T10:11:31.205Z,72.86
2018-09-15T10:14:01.208Z,71.98
2018-09-15T10:16:31.340Z,72.79
2018-09-15T10:19:02.533Z,72.48
2018-09-15T10:21:32.499Z,73.23
2018-09-15T10:24:02.230Z,72.41
2018-09-15T10:26:32.227Z,73.17
2018-09-15T10:29:01.957Z,72.23
2018-09-15T10:31:32.525Z,72.21
2018-09-15T10:34:02.542Z,73.67
2018-09-15T10:36:32.439Z,73.88
2018-09-15T10:39:02.527Z,71.73
2018-09-15T10:41:32.355Z,72.31
2018-09-15T10:44:03.703Z,71.77
2018-09-15T10:46:33.716Z,71.91
2018-09-15T10:49:03.441Z,69.93
2018-09-15T10:51:33.276Z,69.68
2018-09-15T10:54:03.102Z,69.29
2018-09-15T10:56:33.208Z,68.69
2018-09-15T10:59:03.024Z,68.91
2018-09-15T11:01:32.959Z,69.15
2018-09-15T11:04:02.733Z,69.21
2018-09-15T11:06:32.747Z,68.69
2018-09-15T11:09:02.678Z,69.18
2018-09-15T11:11:32.654Z,69.85
2018-09-15T11:14:02.639Z,70.75
2018-09-15T11:16:32.491Z,69.86
2018-09-15T11:19:02.435Z,70.92
2018-09-15T11:21:32.477Z,70.19
2018-09-15T11:24:02.447Z,70.28
2018-09-15T11:26:32.398Z,69.18
2018-09-15T11:29:02.299Z,69.43
2018-09-15T11:31:32.035Z,67.56
2018-09-15T11:34:01.871Z,68.21
2018-09-15T11:36:31.891Z,65.49
2018-09-15T11:39:01.764Z,65.06
2018-09-15T11:41:31.560Z,65.19
2018-09-15T11:44:01.323Z,64.31
2018-09-15T11:46:31.066Z,62.85
2018-09-15T11:49:00.838Z,62.91
2018-09-15T11:51:30.611Z,61.96
2018-09-15T11:54:00.699Z,61.26
2018-09-15T11:56:30.582Z,60.30
2018-09-15T11:59:00.333Z,61.37
2018-09-15T12:01:30.083Z,60.66
2018-09-15T12:04:00.111Z,60.09
2018-09-15T12:06:30.148Z,58.78
2018-09-15T12:09:00.101Z,58.77
2018-09-15T12:11:29.844Z,58.58
2018-09-15T12:13:59.668Z,56.99
2018-09-15T12:16:29.756Z,57.95
2018-09-15T12:18:59.772Z,56.87
2018-09-15T12:21:29.584Z,57.62
2018-09-15T12:23:59.611Z,58.15
2018-09-15T12:26:29.583Z,57.64
2018-09-15T12:28:59.592Z,57.63
2018-09-15T12:31:29.384Z,57.18
2018-09-15T12:33:59.120Z,57.66
2018-09-15T12:36:28.831Z,58.70
2018-09-15T12:38:58.798Z,57.90
2018-09-15T12:41:28.889Z,57.42
2018-09-15T12:43:59.029Z,58.87
2018-09-15T12:46:29.018Z,58.05
2018-09-15T12:48:59.225Z,56.27
2018-09-15T12:51:29.048Z,57.06
2018-09-15T12:53:58.845Z,57.46
2018-09-15T12:56:28.943Z,56.82
2018-09-15T12:58:58.784Z,57.49
2018-09-15T13:01:28.535Z,57.29
2018-09-15T13:03:58.237Z,57.47
2018-09-15T13:06:28.060Z,56.05
2018-09-15T13:08:57.924Z,56.29
2018-09-15T13:11:27.719Z,56.94
2018-09-15T13:13:57.734Z,56.57
2018-09-15T13:16:28.157Z,57.48
2018-09-15T13:18:58.090Z,58.25
2018-09-15T13:21:28.123Z,58.81
2018-09-15T13:23:58.031Z,59.34
2018-09-15T13:26:28.458Z,59.98
2018-09-15T13:28:58.345Z,60.66
2018-09-15T13:31:28.295Z,60.63
2018-09-15T13:33:58.242Z,60.86
2018-09-15T13:36:28.315Z,61.12
2018-09-15T13:38:58.347Z,62.17
2018-09-15T13:41:28.320Z,60.90
2018-09-15T13:43:58.363Z,60.10
2018-09-15T13:46:28.360Z,60.27
2018-09-15T13:48:58.500Z,59.98
2018-09-15T13:51:28.799Z,60.42
2018-09-15T13:53:58.901Z,60.12
2018-09-15T13:56:29.518Z,59.71
2018-09-15T13:58:59.554Z,60.11
2018-09-15T14:01:29.584Z,60.15
2018-09-15T14:03:59.341Z,59.62
2018-09-15T14:06:29.192Z,60.86
2018-09-15T14:08:59.153Z,60.53
2018-09-15T14:11:28.969Z,60.94
2018-09-15T14:13:59.134Z,59.84
2018-09-15T14:16:29.210Z,59.34
2018-09-15T14:18:58.931Z,60.87
2018-09-15T14:21:28.755Z,60.84
2018-09-15T14:23:58.991Z,60.72
2018-09-15T14:26:28.893Z,60.21
2018-09-15T14:28:58.841Z,60.12
2018-09-15T14:31:28.768Z,60.41
2018-09-15T14:33:58.647Z,60.71
2018-09-15T14:36:28.589Z,60.86
2018-09-15T14:38:58.947Z,61.10
2018-09-15T14:41:28.926Z,61.67
2018-09-15T14:43:58.828Z,61.28
2018-09-15T14:46:28.658Z,61.75
2018-09-15T14:48:58.840Z,61.63
2018-09-15T14:51:30.260Z,61.06
2018-09-15T14:54:00.176Z,61.45
2018-09-15T14:56:30.263Z,60.74
2018-09-15T14:59:00.239Z,61.52
2018-09-15T15:01:30.290Z,60.49
2018-09-15T15:04:00.263Z,60.64
2018-09-15T15:06:29.992Z,59.42
2018-09-15T15:08:59.805Z,60.76
2018-09-15T15:11:29.620Z,60.99
2018-09-15T15:13:59.331Z,61.70
2018-09-15T15:16:29.291Z,61.37
2018-09-15T15:18:59.211Z,61.35
2018-09-15T15:21:29.683Z,61.28
2018-09-15T15:23:59.643Z,61.90
2018-09-15T15:26:30.149Z,61.65
2018-09-15T15:28:59.806Z,62.18
2018-09-15T15:31:30.412Z,61.91
2018-09-15T15:34:00.271Z,61.37
2018-09-15T15:36:30.047Z,61.37
2018-09-15T15:39:00.108Z,62.20
2018-09-15T15:41:30.074Z,61.52
2018-09-15T15:44:00.113Z,61.20
2018-09-15T15:46:30.012Z,60.22
2018-09-15T15:48:59.739Z,61.46
2018-09-15T15:51:29.521Z,61.05
2018-09-15T15:53:59.490Z,61.41
2018-09-15T15:56:29.468Z,61.41
2018-09-15T15:59:00.314Z,61.15
2018-09-15T16:01:30.010Z,60.73
2018-09-15T16:03:59.898Z,60.71
2018-09-15T16:06:29.782Z,61.77
2018-09-15T16:09:00.643Z,61.19
2018-09-15T16:11:30.544Z,61.54
2018-09-15T16:14:00.303Z,60.95
2018-09-15T16:16:30.259Z,61.64
2018-09-15T16:19:00.070Z,62.69
2018-09-15T16:21:29.942Z,62.77
2018-09-15T16:23:59.715Z,62.99
2018-09-15T16:26:29.968Z,62.31
2018-09-15T16:28:59.739Z,61.65
2018-09-15T16:31:29.690Z,62.25
2018-09-15T16:33:59.484Z,61.60
2018-09-15T16:36:29.528Z,62.45
2018-09-15T16:38:59.279Z,62.36
2018-09-15T16:41:28.987Z,62.86
2018-09-15T16:43:58.874Z,62.45
2018-09-15T16:46:28.707Z,62.19
2018-09-15T16:48:58.452Z,62.28
2018-09-15T16:51:28.339Z,63.56
2018-09-15T16:53:58.239Z,63.21
2018-09-15T16:56:28.122Z,63.26
2018-09-15T16:58:58.000Z,63.71
2018-09-15T17:01:27.871Z,63.80
2018-09-15T17:03:57.704Z,63.69
2018-09-15T17:06:27.706Z,63.80
2018-09-15T17:08:57.571Z,63.91
2018-09-15T17:11:27.514Z,64.06
2018-09-15T17:13:57.402Z,64.49
2018-09-15T17:16:27.340Z,63.69
2018-09-15T17:18:58.008Z,64.56
2018-09-15T17:21:28.286Z,63.92
2018-09-15T17:23:58.313Z,66.42
2018-09-15T17:26:28.307Z,67.92
2018-09-15T17:29:00.055Z,68.04
2018-09-15T17:31:30.024Z,68.76
2018-09-15T17:33:59.999Z,68.90
2018-09-15T17:36:29.973Z,68.80
2018-09-15T17:38:59.878Z,69.22
2018-09-15T17:41:29.935Z,70.23
2018-09-15T17:43:59.888Z,69.37
2018-09-15T17:46:29.849Z,67.84
2018-09-15T17:48:59.856Z,68.55
2018-09-15T17:51:29.748Z,67.72
2018-09-15T17:54:00.064Z,67.53
2018-09-15T17:56:30.098Z,67.44
2018-09-15T17:58:59.821Z,67.49
2018-09-15T18:01:29.963Z,67.86
2018-09-15T18:03:59.800Z,69.43
2018-09-15T18:06:31.841Z,68.83
2018-09-15T18:09:01.645Z,70.48
2018-09-15T18:11:31.477Z,69.95
2018-09-15T18:14:01.343Z,68.64
2018-09-15T18:16:31.300Z,69.70
2018-09-15T18:19:01.280Z,69.50
2018-09-15T18:21:31.063Z,68.79
2018-09-15T18:24:00.960Z,68.40
2018-09-15T18:26:30.747Z,70.75
2018-09-15T18:29:00.497Z,71.66
2018-09-15T18:31:30.755Z,73.07
2018-09-15T18:34:00.887Z,73.86
2018-09-15T18:36:31.003Z,72.97
2018-09-15T18:39:01.259Z,71.48
2018-09-15T18:41:35.018Z,70.41
2018-09-15T18:44:05.125Z,69.85
2018-09-15T18:46:35.342Z,69.68
2018-09-15T18:49:05.943Z,69.71
2018-09-15T18:51:35.939Z,69.92
2018-09-15T18:54:05.884Z,69.98
2018-09-15T18:56:36.095Z,69.56
2018-09-15T18:59:06.382Z,69.86
2018-09-15T19:01:36.505Z,69.30
2018-09-15T19:04:06.864Z,69.91
2018-09-15T19:06:36.948Z,71.62
2018-09-15T19:09:11.399Z,72.63
2018-09-15T19:11:41.741Z,72.85
2018-09-15T19:14:11.822Z,71.42
2018-09-15T19:16:42.119Z,73.08
2018-09-15T19:19:12.100Z,74.06
2018-09-15T19:21:42.284Z,73.24
2018-09-15T19:24:14.281Z,73.25
2018-09-15T19:26:44.450Z,72.15
2018-09-15T19:29:14.363Z,73.00
2018-09-15T19:31:44.339Z,71.96
2018-09-15T19:34:14.311Z,71.73
2018-09-15T19:36:44.260Z,71.88
2018-09-15T19:39:15.291Z,73.44
2018-09-15T19:41:45.233Z,73.71
2018-09-15T19:44:15.242Z,74.49
2018-09-15T19:46:45.351Z,75.36
2018-09-15T19:49:15.391Z,73.83
2018-09-15T19:51:45.339Z,76.06
2018-09-15T19:54:15.396Z,74.97
2018-09-15T19:56:45.360Z,73.57
2018-09-15T19:59:15.396Z,73.37
2018-09-15T20:01:45.491Z,74.62
2018-09-15T20:04:15.513Z,75.32
2018-09-15T20:06:45.698Z,74.02
2018-09-15T20:09:15.680Z,73.01
2018-09-15T20:11:45.787Z,75.09
2018-09-15T20:14:15.866Z,75.16
2018-09-15T20:16:43.890Z,75.25
2018-09-15T20:19:11.932Z,75.23
2018-09-15T20:21:39.906Z,74.40
2018-09-15T20:24:09.957Z,72.71
2018-09-15T20:26:40.005Z,72.40
2018-09-15T20:29:10.108Z,72.53
2018-09-15T20:31:40.340Z,72.56
2018-09-15T20:34:10.303Z,73.09
2018-09-15T20:36:40.377Z,73.09
2018-09-15T20:39:15.328Z,76.28
2018-09-15T20:41:45.428Z,74.90
2018-09-15T20:44:15.496Z,74.26
2018-09-15T20:46:45.629Z,73.10
2018-09-15T20:49:15.672Z,72.64
2018-09-15T20:51:45.661Z,72.84
2018-09-15T20:54:15.795Z,74.20
2018-09-15T20:56:45.895Z,75.85
2018-09-15T20:59:15.984Z,76.97
2018-09-15T21:01:46.144Z,76.53
2018-09-15T21:04:16.321Z,76.41
2018-09-15T21:06:46.369Z,75.23
2018-09-15T21:09:16.329Z,74.74
2018-09-15T21:11:46.408Z,73.93
2018-09-15T21:14:16.591Z,73.05
2018-09-15T21:16:46.622Z,73.12
2018-09-15T21:19:16.755Z,73.58
2018-09-15T21:21:46.841Z,74.25
2018-09-15T21:24:16.908Z,75.92
2018-09-15T21:26:46.995Z,76.80
2018-09-15T21:29:17.036Z,76.13
2018-09-15T21:31:47.034Z,76.49
2018-09-15T21:34:17.413Z,77.35
2018-09-15T21:36:47.432Z,78.07
2018-09-15T21:39:17.580Z,78.02
2018-09-15T21:41:47.600Z,76.92
2018-09-15T21:44:17.959Z,75.47
2018-09-15T21:46:48.145Z,75.03
2018-09-15T21:49:18.194Z,74.97
2018-09-15T21:51:48.305Z,74.87
2018-09-15T21:54:18.379Z,74.60
2018-09-15T21:56:49.475Z,74.83
2018-09-15T21:59:19.591Z,74.44
2018-09-15T22:01:49.715Z,74.15
2018-09-15T22:04:20.928Z,74.86
2018-09-15T22:06:53.031Z,76.49
2018-09-15T22:09:23.098Z,76.85
2018-09-15T22:11:53.150Z,76.91
2018-09-15T22:14:23.243Z,76.83
2018-09-15T22:16:53.318Z,77.79
2018-09-15T22:19:23.420Z,76.70
2018-09-15T22:21:53.456Z,75.73
2018-09-15T22:24:23.487Z,74.81
2018-09-15T22:26:53.585Z,75.22
2018-09-15T22:29:23.697Z,77.74
2018-09-15T22:31:53.695Z,77.30
2018-09-15T22:34:23.872Z,75.99
2018-09-15T22:36:53.993Z,76.15
2018-09-15T22:39:24.045Z,77.39
2018-09-15T22:41:54.144Z,79.35
2018-09-15T22:44:24.273Z,78.05
2018-09-15T22:46:54.370Z,78.10
2018-09-15T22:49:24.545Z,77.69
2018-09-15T22:51:54.689Z,76.58
2018-09-15T22:54:24.781Z,76.06
2018-09-15T22:56:54.947Z,75.26
2018-09-15T22:59:25.109Z,76.84
2018-09-15T23:01:55.161Z,78.04
2018-09-15T23:04:25.237Z,77.52
2018-09-15T23:06:55.250Z,75.80
2018-09-15T23:09:25.296Z,74.97
2018-09-15T23:11:55.387Z,74.52
2018-09-15T23:14:25.490Z,77.43
2018-09-15T23:16:55.493Z,78.75
2018-09-15T23:19:25.675Z,79.26
2018-09-15T23:21:56.178Z,79.12
2018-09-15T23:24:26.277Z,77.76
2018-09-15T23:26:56.389Z,77.70
2018-09-15T23:29:26.427Z,76.92
2018-09-15T23:31:56.534Z,76.65
2018-09-15T23:34:26.629Z,75.77
2018-09-15T23:36:56.709Z,75.32
2018-09-15T23:39:26.803Z,76.15
2018-09-15T23:41:56.868Z,78.38
2018-09-15T23:44:27.003Z,79.09
2018-09-15T23:46:57.114Z,78.81
2018-09-15T23:49:27.336Z,78.94
2018-09-15T23:51:57.959Z,77.45
2018-09-15T23:54:28.351Z,75.63
2018-09-15T23:56:58.624Z,75.37
2018-09-15T23:59:28.647Z,77.02
